This demonstration page uses our WeatherBlox Daily Observations layout. Learn more.

38.88101, -77.10428

Hourly Observations for June 10, 2017

Temp ( °F °C ) Dew Point ( °F °C ) Humidity (%) Winds ( mph kmh ) Pressure ( in mb ) Visibility ( mi km ) Precip ( " mm )
12:52 am 00:52 Mostly Clear 70 21.1 60 15.6 71 71 S 5 7 29.97 1015 10 16.09344 0 0
1:52 am 01:52 Mostly Clear 69 20.6 61 16.1 76 76 S 6 9 29.97 1015 10 16.09344 0 0
2:52 am 02:52 Mostly Clear 69 20.6 60 15.6 73 73 S 3 6 29.97 1015 10 16.09344 0 0
3:52 am 03:52 Mostly Clear 68 20 57 13.9 68 68 S 6 9 29.97 1015 10 16.09344 0 0
4:52 am 04:52 Partly Cloudy 65 18.3 57 13.9 76 76 SW 5 7 29.97 1015 10 16.09344 0 0
5:52 am 05:52 Mostly Cloudy 66 18.9 59 15 78 78 S 5 7 29.97 1015 10 16.09344 0 0
6:52 am 06:52 Mostly Cloudy 67 19.4 61 16.1 81 81 SSW 3 6 30 1016 10 16.09344 0 0
7:52 am 07:52 Mostly Cloudy 69 20.6 59 15 70 70 Calm 30 1016 10 16.09344 0 0
8:52 am 08:52 Mostly Cloudy 72 22.2 61 16.1 68 68 Calm 30.03 1017 10 16.09344 0 0
9:52 am 09:52 Mostly Cloudy 75 23.9 63 17.2 66 66 S 7 11 30.03 1017 10 16.09344 0 0
10:52 am 10:52 Mostly Cloudy 79 26.1 63 17.2 58 58 SSE 6 9 30.03 1017 10 16.09344 0 0
11:52 am 11:52 Partly Cloudy 83 28.3 63 17.2 51 51 S 10 17 30.03 1017 10 16.09344 0 0
12:52 pm 12:52 Partly Cloudy 85 29.4 57 13.9 39 39 SSE 10 17 30.03 1017 10 16.09344 0 0
1:52 pm 13:52 Partly Cloudy 86 30 58 14.4 39 39 S 14 22 30.03 1017 10 16.09344 0 0
2:52 pm 14:52 Mostly Sunny 86 30 58 14.4 39 39 SSE 14 22 30 1016 10 16.09344 0 0
3:52 pm 15:52 Mostly Sunny 86 30 61 16.1 43 43 S 14 22 30 1016 10 16.09344 0 0
4:52 pm 16:52 Mostly Sunny 86 30 62 16.7 45 45 S 10 17 30 1016 10 16.09344 0 0
5:52 pm 17:52 Sunny 85 29.4 62 16.7 46 46 S 10 17 30 1016 10 16.09344 0 0
6:52 pm 18:52 Mostly Sunny 85 29.4 61 16.1 45 45 S 9 15 30 1016 10 16.09344 0 0
7:52 pm 19:52 Partly Cloudy 83 28.3 65 18.3 55 55 S 8 13 30 1016 10 16.09344 0 0
8:52 pm 20:52 Mostly Cloudy 81 27.2 65 18.3 58 58 S 8 13 30.03 1017 10 16.09344 0 0
9:52 pm 21:52 Mostly Cloudy 78 25.6 68 20 71 71 S 7 11 30.06 1018 10 16.09344 0 0
10:52 pm 22:52 Cloudy 77 25 67 19.4 71 71 S 8 13 30.06 1018 10 16.09344 0 0
11:52 pm 23:52 Mostly Cloudy 75 23.9 66 18.9 74 74 S 9 15 30.06 1018 10 16.09344 0 0

Powered by AerisWeather